sensor_id;sensor_type;location;lat;lon;timestamp;temperature;humidity
64501;DHT22;50874;24.150;-110.320;2022-08-01T00:02:18;33.90;78.80
64501;DHT22;50874;24.150;-110.320;2022-08-01T00:04:45;34.00;78.70
64501;DHT22;50874;24.150;-110.320;2022-08-01T00:07:11;34.00;78.40
64501;DHT22;50874;24.150;-110.320;2022-08-01T00:12:04;33.70;77.90
64501;DHT22;50874;24.150;-110.320;2022-08-01T00:14:31;33.70;78.70
64501;DHT22;50874;24.150;-110.320;2022-08-01T00:16:58;33.60;78.70
64501;DHT22;50874;24.150;-110.320;2022-08-01T00:19:24;33.70;78.60
64501;DHT22;50874;24.150;-110.320;2022-08-01T00:21:51;33.70;78.90
64501;DHT22;50874;24.150;-110.320;2022-08-01T00:24:17;33.70;78.50
64501;DHT22;50874;24.150;-110.320;2022-08-01T00:26:43;33.80;78.80
64501;DHT22;50874;24.150;-110.320;2022-08-01T00:29:10;33.70;78.40
64501;DHT22;50874;24.150;-110.320;2022-08-01T00:31:36;33.80;78.40
64501;DHT22;50874;24.150;-110.320;2022-08-01T00:34:03;34.00;78.30
64501;DHT22;50874;24.150;-110.320;2022-08-01T00:36:29;34.10;77.40
64501;DHT22;50874;24.150;-110.320;2022-08-01T00:38:56;34.30;77.40
64501;DHT22;50874;24.150;-110.320;2022-08-01T00:41:22;34.40;76.80
64501;DHT22;50874;24.150;-110.320;2022-08-01T00:43:49;34.30;77.20
64501;DHT22;50874;24.150;-110.320;2022-08-01T00:46:15;34.30;77.00
64501;DHT22;50874;24.150;-110.320;2022-08-01T00:48:42;34.40;76.80
64501;DHT22;50874;24.150;-110.320;2022-08-01T00:51:08;34.40;76.20
64501;DHT22;50874;24.150;-110.320;2022-08-01T00:53:35;34.50;76.00
64501;DHT22;50874;24.150;-110.320;2022-08-01T00:56:02;34.40;76.20
64501;DHT22;50874;24.150;-110.320;2022-08-01T00:58:29;34.50;76.00
64501;DHT22;50874;24.150;-110.320;2022-08-01T01:00:59;34.50;75.30
64501;DHT22;50874;24.150;-110.320;2022-08-01T01:03:25;34.60;75.70
64501;DHT22;50874;24.150;-110.320;2022-08-01T01:06:12;34.70;76.10
64501;DHT22;50874;24.150;-110.320;2022-08-01T01:08:43;34.70;75.40
64501;DHT22;50874;24.150;-110.320;2022-08-01T01:11:28;34.60;75.30
64501;DHT22;50874;24.150;-110.320;2022-08-01T01:14:03;34.50;75.50
64501;DHT22;50874;24.150;-110.320;2022-08-01T01:16:31;34.40;75.30
64501;DHT22;50874;24.150;-110.320;2022-08-01T01:19:01;34.50;75.80
64501;DHT22;50874;24.150;-110.320;2022-08-01T01:22:17;34.50;76.10
64501;DHT22;50874;24.150;-110.320;2022-08-01T01:30:02;34.50;75.40
64501;DHT22;50874;24.150;-110.320;2022-08-01T01:32:41;34.50;75.90
64501;DHT22;50874;24.150;-110.320;2022-08-01T01:35:31;34.40;73.90
64501;DHT22;50874;24.150;-110.320;2022-08-01T01:38:07;34.30;73.20
64501;DHT22;50874;24.150;-110.320;2022-08-01T01:40:36;34.30;73.20
64501;DHT22;50874;24.150;-110.320;2022-08-01T01:43:05;34.20;73.10
64501;DHT22;50874;24.150;-110.320;2022-08-01T01:45:36;34.10;73.60
64501;DHT22;50874;24.150;-110.320;2022-08-01T01:48:04;34.00;73.80
64501;DHT22;50874;24.150;-110.320;2022-08-01T01:50:31;33.90;74.10
64501;DHT22;50874;24.150;-110.320;2022-08-01T01:52:59;33.90;74.10
64501;DHT22;50874;24.150;-110.320;2022-08-01T01:55:28;33.90;74.10
64501;DHT22;50874;24.150;-110.320;2022-08-01T01:57:56;33.80;74.40
64501;DHT22;50874;24.150;-110.320;2022-08-01T02:00:23;33.70;74.50
64501;DHT22;50874;24.150;-110.320;2022-08-01T02:02:53;33.70;74.60
64501;DHT22;50874;24.150;-110.320;2022-08-01T02:05:20;33.60;74.60
64501;DHT22;50874;24.150;-110.320;2022-08-01T02:07:49;33.40;74.80
64501;DHT22;50874;24.150;-110.320;2022-08-01T02:10:17;33.40;75.30
64501;DHT22;50874;24.150;-110.320;2022-08-01T02:12:44;33.30;75.60
64501;DHT22;50874;24.150;-110.320;2022-08-01T02:15:13;33.20;75.90
64501;DHT22;50874;24.150;-110.320;2022-08-01T02:17:45;33.10;76.50
64501;DHT22;50874;24.150;-110.320;2022-08-01T02:20:13;33.10;76.70
64501;DHT22;50874;24.150;-110.320;2022-08-01T02:22:48;33.00;76.80
64501;DHT22;50874;24.150;-110.320;2022-08-01T02:25:33;32.90;77.10
64501;DHT22;50874;24.150;-110.320;2022-08-01T02:28:09;32.90;77.20
64501;DHT22;50874;24.150;-110.320;2022-08-01T02:30:39;32.80;77.30
64501;DHT22;50874;24.150;-110.320;2022-08-01T02:33:15;32.70;77.20
64501;DHT22;50874;24.150;-110.320;2022-08-01T02:35:45;32.50;77.40
64501;DHT22;50874;24.150;-110.320;2022-08-01T02:38:14;32.60;77.50
64501;DHT22;50874;24.150;-110.320;2022-08-01T02:40:45;32.50;77.90
64501;DHT22;50874;24.150;-110.320;2022-08-01T02:43:12;32.40;78.20
64501;DHT22;50874;24.150;-110.320;2022-08-01T02:45:45;32.50;78.40
64501;DHT22;50874;24.150;-110.320;2022-08-01T02:48:14;32.40;78.80
64501;DHT22;50874;24.150;-110.320;2022-08-01T02:50:45;32.30;79.10
64501;DHT22;50874;24.150;-110.320;2022-08-01T02:53:16;32.20;79.70
64501;DHT22;50874;24.150;-110.320;2022-08-01T02:55:44;32.10;80.30
64501;DHT22;50874;24.150;-110.320;2022-08-01T02:58:16;32.10;81.00
64501;DHT22;50874;24.150;-110.320;2022-08-01T03:00:45;32.00;81.60
64501;DHT22;50874;24.150;-110.320;2022-08-01T03:03:14;31.90;82.30
64501;DHT22;50874;24.150;-110.320;2022-08-01T03:05:42;31.80;82.50
64501;DHT22;50874;24.150;-110.320;2022-08-01T03:08:10;31.80;82.60
64501;DHT22;50874;24.150;-110.320;2022-08-01T03:10:38;31.80;82.80
64501;DHT22;50874;24.150;-110.320;2022-08-01T03:13:07;31.70;82.80
64501;DHT22;50874;24.150;-110.320;2022-08-01T03:15:38;31.70;83.20
64501;DHT22;50874;24.150;-110.320;2022-08-01T03:18:07;31.70;83.80
64501;DHT22;50874;24.150;-110.320;2022-08-01T03:20:35;31.70;84.30
64501;DHT22;50874;24.150;-110.320;2022-08-01T03:23:04;31.60;85.70
64501;DHT22;50874;24.150;-110.320;2022-08-01T03:25:32;31.40;86.50
64501;DHT22;50874;24.150;-110.320;2022-08-01T03:28:02;31.30;87.20
64501;DHT22;50874;24.150;-110.320;2022-08-01T03:30:30;31.20;87.50
64501;DHT22;50874;24.150;-110.320;2022-08-01T03:32:58;31.30;88.00
64501;DHT22;50874;24.150;-110.320;2022-08-01T03:35:33;31.20;88.50
64501;DHT22;50874;24.150;-110.320;2022-08-01T03:38:01;31.10;89.10
64501;DHT22;50874;24.150;-110.320;2022-08-01T03:40:37;31.00;89.90
64501;DHT22;50874;24.150;-110.320;2022-08-01T03:43:09;30.90;90.30
64501;DHT22;50874;24.150;-110.320;2022-08-01T03:45:40;30.80;90.50
64501;DHT22;50874;24.150;-110.320;2022-08-01T03:48:14;30.70;90.80
64501;DHT22;50874;24.150;-110.320;2022-08-01T03:50:45;30.70;90.90
64501;DHT22;50874;24.150;-110.320;2022-08-01T03:53:13;30.70;91.10
64501;DHT22;50874;24.150;-110.320;2022-08-01T03:55:42;30.60;91.30
64501;DHT22;50874;24.150;-110.320;2022-08-01T03:58:09;30.50;91.40
64501;DHT22;50874;24.150;-110.320;2022-08-01T04:00:40;30.50;91.50
64501;DHT22;50874;24.150;-110.320;2022-08-01T04:03:08;30.60;91.50
64501;DHT22;50874;24.150;-110.320;2022-08-01T04:05:35;30.60;91.60
64501;DHT22;50874;24.150;-110.320;2022-08-01T04:08:04;30.60;91.60
64501;DHT22;50874;24.150;-110.320;2022-08-01T04:10:30;30.60;91.70
64501;DHT22;50874;24.150;-110.320;2022-08-01T04:12:57;30.60;91.80
64501;DHT22;50874;24.150;-110.320;2022-08-01T04:15:23;30.60;91.90
64501;DHT22;50874;24.150;-110.320;2022-08-01T04:17:50;30.50;92.00
64501;DHT22;50874;24.150;-110.320;2022-08-01T04:20:16;30.40;91.90
64501;DHT22;50874;24.150;-110.320;2022-08-01T04:22:43;30.40;91.80
64501;DHT22;50874;24.150;-110.320;2022-08-01T04:25:14;30.40;91.80
64501;DHT22;50874;24.150;-110.320;2022-08-01T04:27:46;30.50;91.70
64501;DHT22;50874;24.150;-110.320;2022-08-01T04:30:15;30.40;91.80
64501;DHT22;50874;24.150;-110.320;2022-08-01T04:32:44;30.40;91.90
64501;DHT22;50874;24.150;-110.320;2022-08-01T04:35:13;30.40;92.20
64501;DHT22;50874;24.150;-110.320;2022-08-01T04:37:45;30.30;92.20
64501;DHT22;50874;24.150;-110.320;2022-08-01T04:40:12;30.20;92.50
64501;DHT22;50874;24.150;-110.320;2022-08-01T04:42:39;30.20;92.70
64501;DHT22;50874;24.150;-110.320;2022-08-01T04:45:07;30.20;92.70
64501;DHT22;50874;24.150;-110.320;2022-08-01T04:47:38;30.20;92.80
64501;DHT22;50874;24.150;-110.320;2022-08-01T04:50:06;30.20;93.00
64501;DHT22;50874;24.150;-110.320;2022-08-01T04:52:35;30.10;93.10
64501;DHT22;50874;24.150;-110.320;2022-08-01T04:55:02;30.10;93.20
64501;DHT22;50874;24.150;-110.320;2022-08-01T04:57:29;30.10;93.40
64501;DHT22;50874;24.150;-110.320;2022-08-01T04:59:56;30.00;93.60
64501;DHT22;50874;24.150;-110.320;2022-08-01T05:02:23;30.00;93.70
64501;DHT22;50874;24.150;-110.320;2022-08-01T05:04:49;30.00;93.80
64501;DHT22;50874;24.150;-110.320;2022-08-01T05:07:16;30.00;94.10
64501;DHT22;50874;24.150;-110.320;2022-08-01T05:09:42;30.00;94.10
64501;DHT22;50874;24.150;-110.320;2022-08-01T05:12:12;30.00;94.10
64501;DHT22;50874;24.150;-110.320;2022-08-01T05:14:39;30.00;94.20
64501;DHT22;50874;24.150;-110.320;2022-08-01T05:17:07;30.00;94.40
64501;DHT22;50874;24.150;-110.320;2022-08-01T05:19:35;29.90;94.60
64501;DHT22;50874;24.150;-110.320;2022-08-01T05:22:05;29.90;94.90
64501;DHT22;50874;24.150;-110.320;2022-08-01T05:24:33;29.80;95.00
64501;DHT22;50874;24.150;-110.320;2022-08-01T05:27:00;29.80;95.20
64501;DHT22;50874;24.150;-110.320;2022-08-01T05:29:27;29.80;95.40
64501;DHT22;50874;24.150;-110.320;2022-08-01T05:31:54;29.70;95.70
64501;DHT22;50874;24.150;-110.320;2022-08-01T05:34:21;29.80;95.60
64501;DHT22;50874;24.150;-110.320;2022-08-01T05:36:47;29.80;95.70
64501;DHT22;50874;24.150;-110.320;2022-08-01T05:39:14;29.70;95.80
64501;DHT22;50874;24.150;-110.320;2022-08-01T05:41:41;29.70;95.90
64501;DHT22;50874;24.150;-110.320;2022-08-01T05:44:08;29.60;96.00
64501;DHT22;50874;24.150;-110.320;2022-08-01T05:46:35;29.60;96.20
64501;DHT22;50874;24.150;-110.320;2022-08-01T05:49:03;29.60;96.10
64501;DHT22;50874;24.150;-110.320;2022-08-01T05:51:30;29.60;96.30
64501;DHT22;50874;24.150;-110.320;2022-08-01T05:53:58;29.50;96.40
64501;DHT22;50874;24.150;-110.320;2022-08-01T05:56:24;29.50;96.50
64501;DHT22;50874;24.150;-110.320;2022-08-01T05:58:51;29.50;96.70
64501;DHT22;50874;24.150;-110.320;2022-08-01T06:01:18;29.50;96.80
64501;DHT22;50874;24.150;-110.320;2022-08-01T06:03:45;29.40;96.80
64501;DHT22;50874;24.150;-110.320;2022-08-01T06:06:12;29.40;96.90
64501;DHT22;50874;24.150;-110.320;2022-08-01T06:08:40;29.40;97.00
64501;DHT22;50874;24.150;-110.320;2022-08-01T06:11:07;29.30;97.00
64501;DHT22;50874;24.150;-110.320;2022-08-01T06:13:34;29.30;96.90
64501;DHT22;50874;24.150;-110.320;2022-08-01T06:16:00;29.30;97.00
64501;DHT22;50874;24.150;-110.320;2022-08-01T06:18:27;29.30;96.90
64501;DHT22;50874;24.150;-110.320;2022-08-01T06:20:53;29.40;96.90
64501;DHT22;50874;24.150;-110.320;2022-08-01T06:23:21;29.40;96.90
64501;DHT22;50874;24.150;-110.320;2022-08-01T06:25:47;29.30;96.80
64501;DHT22;50874;24.150;-110.320;2022-08-01T06:28:14;29.20;96.90
64501;DHT22;50874;24.150;-110.320;2022-08-01T06:30:41;29.20;97.00
64501;DHT22;50874;24.150;-110.320;2022-08-01T06:33:07;29.30;97.00
64501;DHT22;50874;24.150;-110.320;2022-08-01T06:35:34;29.20;97.10
64501;DHT22;50874;24.150;-110.320;2022-08-01T06:38:02;29.20;97.20
64501;DHT22;50874;24.150;-110.320;2022-08-01T06:40:28;29.20;97.10
64501;DHT22;50874;24.150;-110.320;2022-08-01T06:42:55;29.30;97.20
64501;DHT22;50874;24.150;-110.320;2022-08-01T06:45:21;29.20;97.20
64501;DHT22;50874;24.150;-110.320;2022-08-01T06:47:52;29.20;97.30
64501;DHT22;50874;24.150;-110.320;2022-08-01T06:50:19;29.10;97.40
64501;DHT22;50874;24.150;-110.320;2022-08-01T06:52:45;29.10;97.50
64501;DHT22;50874;24.150;-110.320;2022-08-01T06:55:12;29.10;97.50
64501;DHT22;50874;24.150;-110.320;2022-08-01T06:57:52;29.10;97.70
64501;DHT22;50874;24.150;-110.320;2022-08-01T07:00:20;29.10;98.00
64501;DHT22;50874;24.150;-110.320;2022-08-01T07:02:57;29.00;98.20
64501;DHT22;50874;24.150;-110.320;2022-08-01T07:05:27;28.90;98.10
64501;DHT22;50874;24.150;-110.320;2022-08-01T07:07:56;28.90;98.20
64501;DHT22;50874;24.150;-110.320;2022-08-01T07:10:23;28.90;98.40
64501;DHT22;50874;24.150;-110.320;2022-08-01T07:12:49;28.90;98.40
64501;DHT22;50874;24.150;-110.320;2022-08-01T07:15:16;28.90;98.40
64501;DHT22;50874;24.150;-110.320;2022-08-01T07:17:42;28.90;98.50
64501;DHT22;50874;24.150;-110.320;2022-08-01T07:20:11;28.90;98.60
64501;DHT22;50874;24.150;-110.320;2022-08-01T07:22:38;28.90;98.90
64501;DHT22;50874;24.150;-110.320;2022-08-01T07:25:06;28.90;99.10
64501;DHT22;50874;24.150;-110.320;2022-08-01T07:27:33;28.90;99.40
64501;DHT22;50874;24.150;-110.320;2022-08-01T07:29:59;28.80;99.60
64501;DHT22;50874;24.150;-110.320;2022-08-01T07:32:26;28.80;99.60
64501;DHT22;50874;24.150;-110.320;2022-08-01T07:34:52;28.80;99.70
64501;DHT22;50874;24.150;-110.320;2022-08-01T07:37:19;28.70;99.90
64501;DHT22;50874;24.150;-110.320;2022-08-01T07:39:45;28.70;99.90
64501;DHT22;50874;24.150;-110.320;2022-08-01T07:42:11;28.70;99.90
64501;DHT22;50874;24.150;-110.320;2022-08-01T07:44:38;28.70;99.90
64501;DHT22;50874;24.150;-110.320;2022-08-01T07:47:05;28.60;99.90
64501;DHT22;50874;24.150;-110.320;2022-08-01T07:49:31;28.60;99.90
64501;DHT22;50874;24.150;-110.320;2022-08-01T07:51:58;28.50;99.90
64501;DHT22;50874;24.150;-110.320;2022-08-01T07:54:24;28.50;99.90
64501;DHT22;50874;24.150;-110.320;2022-08-01T07:56:54;28.60;99.90
64501;DHT22;50874;24.150;-110.320;2022-08-01T07:59:21;28.50;99.90
64501;DHT22;50874;24.150;-110.320;2022-08-01T08:01:51;28.50;99.90
64501;DHT22;50874;24.150;-110.320;2022-08-01T08:04:18;28.50;99.90
64501;DHT22;50874;24.150;-110.320;2022-08-01T08:06:44;28.50;99.90
64501;DHT22;50874;24.150;-110.320;2022-08-01T08:09:13;28.50;99.90
64501;DHT22;50874;24.150;-110.320;2022-08-01T08:11:42;28.50;99.90
64501;DHT22;50874;24.150;-110.320;2022-08-01T08:14:09;28.50;99.90
64501;DHT22;50874;24.150;-110.320;2022-08-01T08:16:35;28.50;99.90
64501;DHT22;50874;24.150;-110.320;2022-08-01T08:19:02;28.50;99.90
64501;DHT22;50874;24.150;-110.320;2022-08-01T08:21:29;28.40;99.90
64501;DHT22;50874;24.150;-110.320;2022-08-01T08:23:56;28.40;99.90
64501;DHT22;50874;24.150;-110.320;2022-08-01T08:26:41;28.40;99.90
64501;DHT22;50874;24.150;-110.320;2022-08-01T08:29:07;28.40;99.90
64501;DHT22;50874;24.150;-110.320;2022-08-01T08:31:34;28.40;99.90
64501;DHT22;50874;24.150;-110.320;2022-08-01T08:34:00;28.30;99.90
64501;DHT22;50874;24.150;-110.320;2022-08-01T08:36:27;28.30;99.90
64501;DHT22;50874;24.150;-110.320;2022-08-01T08:38:53;28.40;99.90
64501;DHT22;50874;24.150;-110.320;2022-08-01T08:41:22;28.30;99.90
64501;DHT22;50874;24.150;-110.320;2022-08-01T08:43:48;28.20;99.90
64501;DHT22;50874;24.150;-110.320;2022-08-01T08:46:16;28.20;99.90
64501;DHT22;50874;24.150;-110.320;2022-08-01T08:48:43;28.20;99.90
64501;DHT22;50874;24.150;-110.320;2022-08-01T08:51:10;28.20;99.90
64501;DHT22;50874;24.150;-110.320;2022-08-01T08:53:40;28.10;99.90
64501;DHT22;50874;24.150;-110.320;2022-08-01T08:56:11;28.20;99.90
64501;DHT22;50874;24.150;-110.320;2022-08-01T08:58:43;28.10;99.90
64501;DHT22;50874;24.150;-110.320;2022-08-01T09:01:11;28.20;99.90
64501;DHT22;50874;24.150;-110.320;2022-08-01T09:03:39;28.10;99.90
64501;DHT22;50874;24.150;-110.320;2022-08-01T09:06:06;28.10;99.90
64501;DHT22;50874;24.150;-110.320;2022-08-01T09:08:33;28.10;99.90
64501;DHT22;50874;24.150;-110.320;2022-08-01T09:11:00;28.10;99.90
64501;DHT22;50874;24.150;-110.320;2022-08-01T09:13:26;28.10;99.90
64501;DHT22;50874;24.150;-110.320;2022-08-01T09:15:54;28.00;99.90
64501;DHT22;50874;24.150;-110.320;2022-08-01T09:18:38;28.00;99.90
64501;DHT22;50874;24.150;-110.320;2022-08-01T09:23:37;27.90;99.90
64501;DHT22;50874;24.150;-110.320;2022-08-01T09:26:09;27.90;99.90
64501;DHT22;50874;24.150;-110.320;2022-08-01T09:28:36;27.90;99.90
64501;DHT22;50874;24.150;-110.320;2022-08-01T09:31:07;27.80;99.90
64501;DHT22;50874;24.150;-110.320;2022-08-01T09:33:57;27.80;99.90
64501;DHT22;50874;24.150;-110.320;2022-08-01T09:36:50;27.80;99.90
64501;DHT22;50874;24.150;-110.320;2022-08-01T09:39:31;27.70;99.90
64501;DHT22;50874;24.150;-110.320;2022-08-01T09:42:02;27.70;99.90
64501;DHT22;50874;24.150;-110.320;2022-08-01T09:44:44;27.70;99.90
64501;DHT22;50874;24.150;-110.320;2022-08-01T09:47:12;27.70;99.90
64501;DHT22;50874;24.150;-110.320;2022-08-01T09:49:40;27.70;99.90
64501;DHT22;50874;24.150;-110.320;2022-08-01T09:52:15;27.70;99.90
64501;DHT22;50874;24.150;-110.320;2022-08-01T09:54:43;27.70;99.90
64501;DHT22;50874;24.150;-110.320;2022-08-01T09:57:16;27.70;99.90
64501;DHT22;50874;24.150;-110.320;2022-08-01T09:59:45;27.70;99.90
64501;DHT22;50874;24.150;-110.320;2022-08-01T10:02:25;27.70;99.90
64501;DHT22;50874;24.150;-110.320;2022-08-01T10:04:52;27.70;99.90
64501;DHT22;50874;24.150;-110.320;2022-08-01T10:07:20;27.70;99.90
64501;DHT22;50874;24.150;-110.320;2022-08-01T10:09:46;27.70;99.90
64501;DHT22;50874;24.150;-110.320;2022-08-01T10:12:15;27.70;99.90
64501;DHT22;50874;24.150;-110.320;2022-08-01T10:14:43;27.70;99.90
64501;DHT22;50874;24.150;-110.320;2022-08-01T10:17:13;27.60;99.90
64501;DHT22;50874;24.150;-110.320;2022-08-01T10:19:41;27.70;99.90
64501;DHT22;50874;24.150;-110.320;2022-08-01T10:22:09;27.60;99.90
64501;DHT22;50874;24.150;-110.320;2022-08-01T10:24:39;27.70;99.90
64501;DHT22;50874;24.150;-110.320;2022-08-01T10:27:08;27.70;99.90
64501;DHT22;50874;24.150;-110.320;2022-08-01T10:29:46;27.70;99.90
64501;DHT22;50874;24.150;-110.320;2022-08-01T10:32:13;27.70;99.90
64501;DHT22;50874;24.150;-110.320;2022-08-01T10:34:39;27.70;99.90
64501;DHT22;50874;24.150;-110.320;2022-08-01T10:37:07;27.70;99.90
64501;DHT22;50874;24.150;-110.320;2022-08-01T10:39:34;27.70;99.90
64501;DHT22;50874;24.150;-110.320;2022-08-01T10:42:01;27.70;99.90
64501;DHT22;50874;24.150;-110.320;2022-08-01T10:44:29;27.70;99.90
64501;DHT22;50874;24.150;-110.320;2022-08-01T10:47:09;27.70;99.90
64501;DHT22;50874;24.150;-110.320;2022-08-01T10:49:41;27.70;99.90
64501;DHT22;50874;24.150;-110.320;2022-08-01T10:52:13;27.70;99.90
64501;DHT22;50874;24.150;-110.320;2022-08-01T10:54:40;27.70;99.90
64501;DHT22;50874;24.150;-110.320;2022-08-01T10:57:07;27.70;99.90
64501;DHT22;50874;24.150;-110.320;2022-08-01T10:59:33;27.70;99.90
64501;DHT22;50874;24.150;-110.320;2022-08-01T11:02:06;27.70;99.90
64501;DHT22;50874;24.150;-110.320;2022-08-01T11:07:17;27.80;99.90
64501;DHT22;50874;24.150;-110.320;2022-08-01T11:09:48;27.80;99.90
64501;DHT22;50874;24.150;-110.320;2022-08-01T11:12:41;27.80;99.90
64501;DHT22;50874;24.150;-110.320;2022-08-01T11:17:38;27.80;99.90
64501;DHT22;50874;24.150;-110.320;2022-08-01T11:26:11;27.80;99.90
64501;DHT22;50874;24.150;-110.320;2022-08-01T11:28:17;27.80;99.90
64501;DHT22;50874;24.150;-110.320;2022-08-01T11:30:49;27.80;99.90
64501;DHT22;50874;24.150;-110.320;2022-08-01T11:33:17;27.80;99.90
64501;DHT22;50874;24.150;-110.320;2022-08-01T11:38:40;27.90;99.90
64501;DHT22;50874;24.150;-110.320;2022-08-01T11:41:21;27.80;99.90
64501;DHT22;50874;24.150;-110.320;2022-08-01T11:57:24;27.90;99.90
64501;DHT22;50874;24.150;-110.320;2022-08-01T11:59:56;27.90;99.90
64501;DHT22;50874;24.150;-110.320;2022-08-01T12:02:31;27.90;99.90
64501;DHT22;50874;24.150;-110.320;2022-08-01T12:07:29;27.90;99.90
64501;DHT22;50874;24.150;-110.320;2022-08-01T12:10:05;27.90;99.90
64501;DHT22;50874;24.150;-110.320;2022-08-01T12:12:33;27.90;99.90
64501;DHT22;50874;24.150;-110.320;2022-08-01T12:15:04;27.90;99.90
64501;DHT22;50874;24.150;-110.320;2022-08-01T12:17:40;27.90;99.90
64501;DHT22;50874;24.150;-110.320;2022-08-01T12:20:09;27.80;99.90
64501;DHT22;50874;24.150;-110.320;2022-08-01T12:22:36;27.80;99.90
64501;DHT22;50874;24.150;-110.320;2022-08-01T12:25:08;27.80;99.90
64501;DHT22;50874;24.150;-110.320;2022-08-01T12:27:36;27.70;99.90
64501;DHT22;50874;24.150;-110.320;2022-08-01T12:30:05;27.70;99.90
64501;DHT22;50874;24.150;-110.320;2022-08-01T12:32:34;27.70;99.90
64501;DHT22;50874;24.150;-110.320;2022-08-01T12:37:46;27.60;99.90
64501;DHT22;50874;24.150;-110.320;2022-08-01T12:40:18;27.60;99.90
64501;DHT22;50874;24.150;-110.320;2022-08-01T12:42:47;27.60;99.90
64501;DHT22;50874;24.150;-110.320;2022-08-01T12:45:17;27.50;99.90
64501;DHT22;50874;24.150;-110.320;2022-08-01T12:47:46;27.50;99.90
64501;DHT22;50874;24.150;-110.320;2022-08-01T12:50:16;27.50;99.90
64501;DHT22;50874;24.150;-110.320;2022-08-01T12:52:44;27.50;99.90
64501;DHT22;50874;24.150;-110.320;2022-08-01T12:55:17;27.50;99.90
64501;DHT22;50874;24.150;-110.320;2022-08-01T12:57:46;27.50;99.90
64501;DHT22;50874;24.150;-110.320;2022-08-01T13:00:24;27.50;99.90
64501;DHT22;50874;24.150;-110.320;2022-08-01T13:03:07;27.50;99.90
64501;DHT22;50874;24.150;-110.320;2022-08-01T13:05:44;27.50;99.90
64501;DHT22;50874;24.150;-110.320;2022-08-01T13:08:12;27.50;99.90
64501;DHT22;50874;24.150;-110.320;2022-08-01T13:10:40;27.60;99.90
64501;DHT22;50874;24.150;-110.320;2022-08-01T13:13:07;27.60;99.90
64501;DHT22;50874;24.150;-110.320;2022-08-01T13:15:37;27.60;99.90
64501;DHT22;50874;24.150;-110.320;2022-08-01T13:18:37;27.70;99.90
64501;DHT22;50874;24.150;-110.320;2022-08-01T13:21:13;27.90;99.90
64501;DHT22;50874;24.150;-110.320;2022-08-01T13:23:58;28.10;99.90
64501;DHT22;50874;24.150;-110.320;2022-08-01T13:29:16;28.60;99.90
64501;DHT22;50874;24.150;-110.320;2022-08-01T13:31:44;28.60;99.90
64501;DHT22;50874;24.150;-110.320;2022-08-01T13:34:11;28.60;99.90
64501;DHT22;50874;24.150;-110.320;2022-08-01T13:36:38;28.50;99.90
64501;DHT22;50874;24.150;-110.320;2022-08-01T13:39:05;28.60;99.90
64501;DHT22;50874;24.150;-110.320;2022-08-01T13:41:51;28.50;99.90
64501;DHT22;50874;24.150;-110.320;2022-08-01T13:44:18;28.60;99.90
64501;DHT22;50874;24.150;-110.320;2022-08-01T13:46:45;28.70;99.90
64501;DHT22;50874;24.150;-110.320;2022-08-01T13:49:13;29.00;99.90
64501;DHT22;50874;24.150;-110.320;2022-08-01T13:51:40;29.40;99.90
64501;DHT22;50874;24.150;-110.320;2022-08-01T13:54:07;29.80;99.40
64501;DHT22;50874;24.150;-110.320;2022-08-01T13:56:34;30.20;98.60
64501;DHT22;50874;24.150;-110.320;2022-08-01T13:59:00;30.60;97.70
64501;DHT22;50874;24.150;-110.320;2022-08-01T14:01:27;31.00;96.90
64501;DHT22;50874;24.150;-110.320;2022-08-01T14:03:53;31.40;96.00
64501;DHT22;50874;24.150;-110.320;2022-08-01T14:06:20;31.50;95.20
64501;DHT22;50874;24.150;-110.320;2022-08-01T14:08:48;31.80;94.40
64501;DHT22;50874;24.150;-110.320;2022-08-01T14:11:16;32.00;94.30
64501;DHT22;50874;24.150;-110.320;2022-08-01T14:13:42;32.20;93.60
64501;DHT22;50874;24.150;-110.320;2022-08-01T14:16:09;32.10;93.70
64501;DHT22;50874;24.150;-110.320;2022-08-01T14:18:35;32.30;93.40
64501;DHT22;50874;24.150;-110.320;2022-08-01T14:21:02;32.40;92.80
64501;DHT22;50874;24.150;-110.320;2022-08-01T14:23:28;32.50;92.40
64501;DHT22;50874;24.150;-110.320;2022-08-01T14:25:55;32.70;92.10
64501;DHT22;50874;24.150;-110.320;2022-08-01T14:28:21;32.90;91.70
64501;DHT22;50874;24.150;-110.320;2022-08-01T14:30:49;33.10;91.30
64501;DHT22;50874;24.150;-110.320;2022-08-01T14:33:16;33.40;91.00
64501;DHT22;50874;24.150;-110.320;2022-08-01T14:35:42;33.70;90.30
64501;DHT22;50874;24.150;-110.320;2022-08-01T14:38:08;33.90;89.90
64501;DHT22;50874;24.150;-110.320;2022-08-01T14:40:35;33.90;89.90
64501;DHT22;50874;24.150;-110.320;2022-08-01T14:43:02;34.30;89.20
64501;DHT22;50874;24.150;-110.320;2022-08-01T14:45:28;34.60;87.10
64501;DHT22;50874;24.150;-110.320;2022-08-01T14:47:55;34.30;87.40
64501;DHT22;50874;24.150;-110.320;2022-08-01T14:50:21;34.50;86.80
64501;DHT22;50874;24.150;-110.320;2022-08-01T14:52:49;34.90;86.00
64501;DHT22;50874;24.150;-110.320;2022-08-01T14:55:16;35.30;84.90
64501;DHT22;50874;24.150;-110.320;2022-08-01T14:57:43;35.80;83.10
64501;DHT22;50874;24.150;-110.320;2022-08-01T15:00:10;36.00;82.10
64501;DHT22;50874;24.150;-110.320;2022-08-01T15:02:40;36.40;80.50
64501;DHT22;50874;24.150;-110.320;2022-08-01T15:05:07;36.30;80.40
64501;DHT22;50874;24.150;-110.320;2022-08-01T15:07:35;36.00;80.20
64501;DHT22;50874;24.150;-110.320;2022-08-01T15:10:03;36.20;79.10
64501;DHT22;50874;24.150;-110.320;2022-08-01T15:12:29;36.50;78.50
64501;DHT22;50874;24.150;-110.320;2022-08-01T15:14:56;36.80;77.90
64501;DHT22;50874;24.150;-110.320;2022-08-01T15:17:28;37.20;76.20
64501;DHT22;50874;24.150;-110.320;2022-08-01T15:19:56;37.10;75.60
64501;DHT22;50874;24.150;-110.320;2022-08-01T15:22:23;37.40;75.30
64501;DHT22;50874;24.150;-110.320;2022-08-01T15:24:52;37.80;73.80
64501;DHT22;50874;24.150;-110.320;2022-08-01T15:27:19;37.90;72.70
64501;DHT22;50874;24.150;-110.320;2022-08-01T15:29:47;38.30;71.30
64501;DHT22;50874;24.150;-110.320;2022-08-01T15:32:14;38.20;70.30
64501;DHT22;50874;24.150;-110.320;2022-08-01T15:34:42;38.30;70.40
64501;DHT22;50874;24.150;-110.320;2022-08-01T15:37:09;38.70;68.40
64501;DHT22;50874;24.150;-110.320;2022-08-01T15:39:36;38.50;67.90
64501;DHT22;50874;24.150;-110.320;2022-08-01T15:42:11;38.90;66.90
64501;DHT22;50874;24.150;-110.320;2022-08-01T15:44:38;39.10;64.70
64501;DHT22;50874;24.150;-110.320;2022-08-01T15:47:06;38.70;65.40